Time;durP1;ratioP1;P1;durP2;ratioP2;P2;SDS_P1;SDS_P2;PMS_P1;PMS_P2;Temp;Humidity;BMP_temperature;BMP_pressure;BME280_temperature;BME280_humidity;BME280_pressure;Samples;Min_cycle;Max_cycle;Signal;HPM_P1;HPM_P2
2021/12/26 07:02:14;;;;;;;75.55;6.35;;;11.80;99.90;;;;;;5073008;23;20036;-86
2021/12/26 07:04:42;;;;;;;63.17;5.75;;;11.80;99.90;;;;;;4897512;29;20080;-87
2021/12/26 07:07:09;;;;;;;52.33;4.75;;;11.80;99.90;;;;;;4915351;29;20103;-86
2021/12/26 07:09:36;;;;;;;48.35;4.78;;;11.80;99.90;;;;;;4899172;29;20052;-86
2021/12/26 07:12:04;;;;;;;43.75;4.70;;;11.80;99.90;;;;;;4913699;29;20532;-85
2021/12/26 07:14:31;;;;;;;42.28;4.38;;;11.80;99.90;;;;;;4899814;29;20052;-85
2021/12/26 07:16:58;;;;;;;41.00;4.65;;;11.80;99.90;;;;;;4916155;29;20048;-86
2021/12/26 07:19:24;;;;;;;38.42;4.55;;;11.80;99.90;;;;;;4915570;29;20429;-85
2021/12/26 07:21:51;;;;;;;42.08;5.28;;;11.80;99.90;;;;;;4899696;29;20044;-84
2021/12/26 07:24:18;;;;;;;46.42;4.75;;;11.80;99.90;;;;;;4914712;29;20056;-85
2021/12/26 07:26:46;;;;;;;47.83;5.10;;;11.80;99.90;;;;;;4913393;29;20052;-84
2021/12/26 07:29:13;;;;;;;50.40;5.57;;;11.80;99.90;;;;;;4899222;29;20080;-86
2021/12/26 07:31:40;;;;;;;43.47;4.20;;;11.80;99.90;;;;;;4897571;29;20056;-85
2021/12/26 07:34:07;;;;;;;36.08;3.67;;;11.80;99.90;;;;;;4913714;29;20076;-84
2021/12/26 07:36:34;;;;;;;21.00;2.88;;;11.80;99.90;;;;;;4910647;29;20044;-84
2021/12/26 07:39:02;;;;;;;16.25;2.70;;;11.80;99.90;;;;;;4911671;29;20139;-84
2021/12/26 07:41:34;;;;;;;27.27;3.80;;;11.70;99.90;;;;;;4898571;29;20044;-85
2021/12/26 07:44:01;;;;;;;28.05;3.35;;;11.70;99.90;;;;;;4913534;29;20096;-85
2021/12/26 07:46:28;;;;;;;27.13;2.67;;;11.70;99.90;;;;;;4912238;29;20048;-93
2021/12/26 07:48:56;;;;;;;24.40;2.65;;;11.60;99.90;;;;;;4914324;29;20051;-84
2021/12/26 07:51:23;;;;;;;22.95;2.95;;;11.60;99.90;;;;;;4912161;29;20064;-85
2021/12/26 07:53:51;;;;;;;21.45;2.22;;;11.60;99.90;;;;;;4913656;29;20170;-84
2021/12/26 07:56:19;;;;;;;31.80;3.28;;;11.50;99.90;;;;;;4894907;29;20509;-85
2021/12/26 07:58:46;;;;;;;29.45;3.22;;;11.50;99.90;;;;;;4912091;29;20083;-84
2021/12/26 08:01:13;;;;;;;44.33;4.20;;;11.50;99.90;;;;;;4912286;29;20466;-86
2021/12/26 08:03:40;;;;;;;37.60;4.50;;;11.50;99.90;;;;;;4898388;29;20393;-85
2021/12/26 08:06:11;;;;;;;37.28;3.65;;;11.50;99.90;;;;;;4894526;29;20103;-84
2021/12/26 08:08:38;;;;;;;38.35;3.88;;;11.50;99.90;;;;;;4899516;29;20112;-84
2021/12/26 08:11:05;;;;;;;41.63;4.50;;;11.50;99.90;;;;;;4911659;29;20532;-83
2021/12/26 08:13:33;;;;;;;31.52;4.32;;;11.50;99.90;;;;;;4897610;29;20055;-84
2021/12/26 08:16:00;;;;;;;42.00;5.15;;;11.50;99.90;;;;;;4913956;29;20525;-84
2021/12/26 08:18:27;;;;;;;43.85;4.15;;;11.50;99.90;;;;;;4913922;29;20107;-84
2021/12/26 08:20:54;;;;;;;41.38;4.55;;;11.50;99.90;;;;;;4906799;29;20052;-85
2021/12/26 08:23:21;;;;;;;46.80;4.40;;;11.50;99.90;;;;;;4893599;29;20056;-85
2021/12/26 08:25:49;;;;;;;35.35;4.00;;;11.50;99.90;;;;;;4896844;29;20075;-85
2021/12/26 08:28:16;;;;;;;45.53;4.90;;;11.50;99.90;;;;;;4911149;29;20048;-85
2021/12/26 08:30:44;;;;;;;46.47;4.22;;;11.50;99.90;;;;;;4914025;29;20052;-86
2021/12/26 08:33:11;;;;;;;37.47;4.03;;;11.50;99.90;;;;;;4896638;29;20190;-86
2021/12/26 08:35:41;;;;;;;28.65;4.13;;;11.50;99.90;;;;;;4897111;29;20056;-85
2021/12/26 08:38:09;;;;;;;36.90;3.20;;;11.50;99.90;;;;;;4911095;29;20043;-85
2021/12/26 08:40:36;;;;;;;27.50;3.17;;;11.50;99.90;;;;;;4912151;29;20048;-85
2021/12/26 08:43:03;;;;;;;30.00;3.70;;;11.50;99.90;;;;;;4896528;29;20083;-86
2021/12/26 08:45:30;;;;;;;26.83;3.17;;;11.50;99.90;;;;;;4912190;29;20052;-87
2021/12/26 08:47:57;;;;;;;33.00;3.30;;;11.50;99.90;;;;;;4913466;29;20052;-85
2021/12/26 08:50:25;;;;;;;30.45;4.30;;;11.50;99.90;;;;;;4912257;29;20113;-87
2021/12/26 08:52:53;;;;;;;27.48;2.78;;;11.50;99.90;;;;;;4911681;29;20089;-86
2021/12/26 08:55:21;;;;;;;27.67;3.30;;;11.50;99.90;;;;;;4894734;29;20508;-86
2021/12/26 08:57:48;;;;;;;23.80;3.10;;;11.50;99.90;;;;;;4897974;29;20052;-86
2021/12/26 09:00:16;;;;;;;31.20;3.50;;;11.50;99.90;;;;;;4895266;29;20526;-86
2021/12/26 09:02:44;;;;;;;23.75;3.65;;;11.50;99.90;;;;;;4915595;29;20059;-85
2021/12/26 09:05:12;;;;;;;32.75;3.35;;;11.50;99.90;;;;;;4914156;29;20108;-86
2021/12/26 09:07:40;;;;;;;23.98;3.38;;;11.50;99.90;;;;;;4930706;29;20136;-86
2021/12/26 09:10:08;;;;;;;37.63;4.87;;;11.50;99.90;;;;;;4932374;29;20043;-86
2021/12/26 09:12:59;;;;;;;35.08;3.75;;;11.50;99.90;;;;;;4929719;29;20051;-85
2021/12/26 09:15:26;;;;;;;32.85;3.35;;;11.50;99.90;;;;;;4930087;28;20071;-86
2021/12/26 09:17:53;;;;;;;39.70;4.38;;;11.50;99.90;;;;;;4929947;28;20072;-86
2021/12/26 09:20:21;;;;;;;38.33;3.85;;;11.60;99.90;;;;;;4928871;28;20039;-86
2021/12/26 09:22:48;;;;;;;27.80;3.95;;;11.60;99.90;;;;;;4929559;28;20484;-85
2021/12/26 09:25:15;;;;;;;30.42;4.05;;;11.60;99.90;;;;;;4929730;28;20115;-85
2021/12/26 09:27:42;;;;;;;38.60;4.55;;;11.60;99.90;;;;;;4931896;28;20055;-86
2021/12/26 09:30:11;;;;;;;36.72;3.70;;;11.60;99.90;;;;;;4914551;29;20083;-86
2021/12/26 09:32:38;;;;;;;31.75;4.35;;;11.60;99.90;;;;;;4929493;28;20059;-86
2021/12/26 09:35:06;;;;;;;28.95;3.58;;;11.60;99.90;;;;;;4914061;28;20040;-85
2021/12/26 09:37:34;;;;;;;23.58;2.75;;;11.70;99.90;;;;;;4913799;29;20104;-86
2021/12/26 09:40:02;;;;;;;25.35;2.80;;;11.70;99.90;;;;;;4931956;29;20048;-86
2021/12/26 09:42:29;;;;;;;29.27;4.13;;;11.80;99.90;;;;;;4915186;28;20124;-86
2021/12/26 09:44:58;;;;;;;23.33;3.80;;;11.80;99.90;;;;;;4929262;28;20107;-86
2021/12/26 09:47:26;;;;;;;22.15;4.07;;;11.80;99.90;;;;;;4914733;29;20043;-87
2021/12/26 09:49:53;;;;;;;33.60;3.63;;;11.90;99.90;;;;;;4911802;29;20048;-86
2021/12/26 09:52:21;;;;;;;30.33;3.90;;;11.90;99.90;;;;;;4910171;29;20108;-85
2021/12/26 09:54:48;;;;;;;20.65;2.78;;;11.90;99.90;;;;;;4927262;28;20055;-85
2021/12/26 09:57:15;;;;;;;32.17;3.20;;;12.00;99.90;;;;;;4926604;28;20308;-87
2021/12/26 09:59:47;;;;;;;35.63;2.95;;;12.00;99.90;;;;;;4927064;29;20075;-86
2021/12/26 10:02:16;;;;;;;33.55;3.25;;;11.90;99.90;;;;;;4909974;28;20044;-86
2021/12/26 10:04:48;;;;;;;26.88;3.75;;;11.90;99.90;;;;;;4890999;29;20055;-86
2021/12/26 10:07:23;;;;;;;28.50;3.20;;;11.90;99.90;;;;;;4885776;29;20079;-86
2021/12/26 10:09:52;;;;;;;32.97;3.72;;;12.00;99.90;;;;;;4908937;29;20067;-86
2021/12/26 10:12:20;;;;;;;26.27;2.70;;;11.90;99.90;;;;;;4894457;29;20056;-86
2021/12/26 10:14:53;;;;;;;24.13;2.78;;;11.90;99.90;;;;;;4895656;29;20068;-85
2021/12/26 10:17:26;;;;;;;22.67;3.00;;;12.00;99.90;;;;;;4907250;29;20051;-85
2021/12/26 10:20:11;;;;;;;28.75;3.17;;;12.00;99.90;;;;;;4905850;29;20047;-85
2021/12/26 10:22:38;;;;;;;19.02;2.95;;;12.00;99.90;;;;;;4910130;29;20052;-92
2021/12/26 10:25:15;;;;;;;26.98;3.47;;;12.00;99.90;;;;;;4892767;29;20055;-85
2021/12/26 10:27:45;;;;;;;22.13;4.07;;;12.00;99.90;;;;;;4911145;29;20055;-85
2021/12/26 10:30:22;;;;;;;27.15;3.45;;;12.10;99.90;;;;;;4915315;29;20044;-85
2021/12/26 10:32:57;;;;;;;23.67;2.78;;;12.10;99.90;;;;;;4907756;29;20461;-85
2021/12/26 10:35:24;;;;;;;29.38;3.47;;;12.10;99.90;;;;;;4909337;29;20182;-85
2021/12/26 10:37:52;;;;;;;23.95;3.72;;;12.20;99.90;;;;;;4907311;29;20056;-86
2021/12/26 10:40:23;;;;;;;27.20;4.28;;;12.30;99.90;;;;;;4905764;29;20144;-84
2021/12/26 10:42:52;;;;;;;27.48;4.47;;;12.30;99.90;;;;;;4907681;29;20112;-84
2021/12/26 10:45:25;;;;;;;35.90;4.18;;;12.40;99.90;;;;;;4915517;29;20552;-85
2021/12/26 10:47:58;;;;;;;36.30;5.45;;;12.40;99.90;;;;;;4919602;29;20055;-85
2021/12/26 10:50:27;;;;;;;38.08;6.50;;;12.50;99.90;;;;;;4914212;29;21168;-84
2021/12/26 10:53:11;;;;;;;32.50;5.32;;;12.50;99.90;;;;;;4911137;29;20040;-85
2021/12/26 10:55:47;;;;;;;26.30;3.97;;;12.60;99.90;;;;;;4910544;29;20059;-84
2021/12/26 10:58:20;;;;;;;18.88;2.65;;;12.60;99.90;;;;;;4900327;29;20493;-83
2021/12/26 11:00:51;;;;;;;18.02;2.15;;;12.60;99.90;;;;;;4910212;29;20060;-82
2021/12/26 11:03:22;;;;;;;13.52;2.15;;;12.60;99.90;;;;;;4911844;29;20060;-83
2021/12/26 11:05:52;;;;;;;21.30;2.85;;;12.60;99.90;;;;;;4920288;29;20055;-84
2021/12/26 11:08:28;;;;;;;21.25;2.53;;;12.60;99.90;;;;;;4912332;29;20055;-84
2021/12/26 11:10:58;;;;;;;16.95;1.80;;;12.70;99.90;;;;;;4909791;29;20054;-83
2021/12/26 11:13:29;;;;;;;17.77;2.38;;;12.70;99.90;;;;;;4907940;29;20048;-84
2021/12/26 11:15:59;;;;;;;13.45;2.20;;;12.70;99.90;;;;;;4916831;29;20052;-83
2021/12/26 11:18:26;;;;;;;20.55;3.47;;;12.80;99.90;;;;;;4914230;29;20044;-83
2021/12/26 11:20:58;;;;;;;19.27;2.90;;;12.80;99.90;;;;;;4911889;29;20134;-83
2021/12/26 11:23:30;;;;;;;17.83;2.35;;;12.80;99.90;;;;;;4909644;29;20513;-83
2021/12/26 11:26:13;;;;;;;20.88;2.28;;;12.80;99.90;;;;;;4908620;29;20553;-82
2021/12/26 11:28:43;;;;;;;16.48;2.58;;;12.90;99.90;;;;;;4907689;29;20052;-84
2021/12/26 11:31:15;;;;;;;18.20;2.10;;;12.90;99.90;;;;;;4909257;29;20112;-84
2021/12/26 11:33:42;;;;;;;20.25;2.00;;;12.90;99.90;;;;;;4915473;29;20052;-84
2021/12/26 11:36:11;;;;;;;17.15;2.45;;;12.90;99.90;;;;;;4909048;29;20132;-84
2021/12/26 11:38:40;;;;;;;11.15;1.58;;;13.00;99.90;;;;;;4909773;29;20059;-84
2021/12/26 11:41:15;;;;;;;11.60;1.70;;;13.00;99.90;;;;;;4909659;29;20369;-84
2021/12/26 11:44:04;;;;;;;14.45;2.10;;;13.00;99.90;;;;;;4910101;29;20135;-83
2021/12/26 11:46:54;;;;;;;12.13;1.85;;;13.10;99.90;;;;;;4909023;29;20048;-84
2021/12/26 11:49:49;;;;;;;14.52;1.38;;;13.00;99.90;;;;;;4908197;29;20104;-84
2021/12/26 11:52:22;;;;;;;10.13;1.50;;;13.00;99.90;;;;;;4908557;29;20044;-83
2021/12/26 11:55:23;;;;;;;13.63;1.90;;;13.10;99.90;;;;;;4910699;29;20103;-82
2021/12/26 11:58:25;;;;;;;13.35;1.40;;;13.10;99.90;;;;;;4907853;29;20048;-84
2021/12/26 12:00:53;;;;;;;11.32;1.27;;;13.10;99.90;;;;;;4836883;29;20584;-84
2021/12/26 12:03:25;;;;;;;;;;;13.10;99.90;;;;;;4868367;29;20057;-85
2021/12/26 12:05:54;;;;;;;11.77;1.40;;;13.10;99.90;;;;;;4870166;29;19923;-84
2021/12/26 12:08:24;;;;;;;;;;;13.10;99.90;;;;;;4869351;29;20111;-87
2021/12/26 12:10:54;;;;;;;9.80;1.33;;;13.10;99.90;;;;;;4869242;29;19935;-88
2021/12/26 12:13:39;;;;;;;6.88;1.30;;;13.10;99.90;;;;;;4868711;29;20061;-84
2021/12/26 12:16:08;;;;;;;13.52;2.15;;;13.10;99.90;;;;;;4851648;29;20054;-84
2021/12/26 12:18:56;;;;;;;11.18;1.20;;;13.00;99.90;;;;;;4870379;29;20514;-84
2021/12/26 12:21:44;;;;;;;9.27;1.60;;;13.00;99.90;;;;;;4868068;29;20076;-84
2021/12/26 12:24:26;;;;;;;14.60;1.75;;;13.00;99.90;;;;;;4868692;29;20059;-85
2021/12/26 12:26:56;;;;;;;18.13;1.50;;;13.00;99.90;;;;;;4853503;29;20053;-85
2021/12/26 12:29:29;;;;;;;14.07;1.70;;;13.00;99.90;;;;;;4868051;29;20051;-84
2021/12/26 12:32:12;;;;;;;10.63;1.67;;;13.00;99.90;;;;;;4868823;29;20048;-84
2021/12/26 12:35:14;;;;;;;10.68;2.25;;;13.00;99.90;;;;;;4851781;29;20045;-85
2021/12/26 12:37:46;;;;;;;12.13;1.50;;;13.00;99.90;;;;;;4904786;28;20870;-85
2021/12/26 12:40:39;;;;;;;13.38;1.80;;;13.10;99.90;;;;;;4925355;29;20056;-84
2021/12/26 12:43:18;;;;;;;14.90;3.67;;;13.20;99.90;;;;;;4925222;28;20052;-84
2021/12/26 12:48:44;;;;;;;13.15;1.55;;;13.20;99.90;;;;;;4923248;28;20048;-84
2021/12/26 12:51:14;;;;;;;12.25;1.45;;;13.20;99.90;;;;;;4920908;28;20044;-82
2021/12/26 12:53:45;;;;;;;13.43;1.52;;;13.30;99.90;;;;;;4923219;28;20066;-82
2021/12/26 12:56:44;;;;;;;12.70;1.83;;;13.30;99.90;;;;;;4925859;28;20044;-82
2021/12/26 13:01:40;;;;;;;17.80;4.13;;;13.40;99.90;;;;;;4914025;28;20080;-85
2021/12/26 13:04:08;;;;;;;21.23;6.00;;;13.50;99.90;;;;;;4911628;29;20431;-84
2021/12/26 13:06:46;;;;;;;34.35;12.07;;;13.50;99.90;;;;;;4912450;29;20099;-85
2021/12/26 13:09:13;;;;;;;15.43;3.33;;;13.60;99.90;;;;;;4901915;29;20092;-84
2021/12/26 13:11:40;;;;;;;12.60;1.75;;;13.70;99.90;;;;;;4883209;29;20072;-84
2021/12/26 13:14:07;;;;;;;14.45;2.08;;;13.70;99.90;;;;;;4890008;29;20040;-84
2021/12/26 13:16:34;;;;;;;20.88;5.70;;;13.70;99.90;;;;;;4896308;29;20604;-83
2021/12/26 13:19:09;;;;;;;23.17;5.97;;;13.70;99.90;;;;;;4897602;29;20082;-84
2021/12/26 13:21:37;;;;;;;13.35;1.83;;;13.80;99.90;;;;;;4890951;29;20048;-85
2021/12/26 13:24:09;;;;;;;12.02;1.45;;;13.80;99.90;;;;;;4910913;29;20888;-86
2021/12/26 13:26:41;;;;;;;11.52;1.65;;;13.70;99.90;;;;;;4887608;29;20135;-85
2021/12/26 13:29:08;;;;;;;12.57;1.73;;;13.70;99.90;;;;;;4905931;29;20054;-84
2021/12/26 13:31:35;;;;;;;12.48;2.17;;;13.70;99.90;;;;;;4907544;29;20107;-84
2021/12/26 13:34:02;;;;;;;16.23;1.85;;;13.70;99.90;;;;;;4907615;29;20052;-84
2021/12/26 13:36:31;;;;;;;13.18;1.98;;;13.80;99.90;;;;;;4906731;29;20063;-83
2021/12/26 13:38:58;;;;;;;15.85;2.10;;;13.80;99.90;;;;;;4900664;29;20068;-84
2021/12/26 13:41:28;;;;;;;12.77;1.98;;;13.80;99.90;;;;;;4895783;29;20072;-84
2021/12/26 13:43:59;;;;;;;12.70;1.48;;;13.80;99.90;;;;;;4908555;29;20425;-82
2021/12/26 13:46:32;;;;;;;12.85;1.80;;;13.80;99.90;;;;;;4907110;29;20099;-83
2021/12/26 13:48:59;;;;;;;7.30;1.50;;;13.80;99.90;;;;;;4909038;29;20508;-85
2021/12/26 13:51:32;;;;;;;10.07;1.55;;;13.80;99.90;;;;;;4911595;29;20059;-83
2021/12/26 13:54:07;;;;;;;9.93;1.92;;;13.80;99.90;;;;;;4903731;29;20064;-83
2021/12/26 13:56:49;;;;;;;15.25;1.90;;;13.90;99.90;;;;;;4905707;29;20744;-83
2021/12/26 13:59:41;;;;;;;12.98;2.30;;;13.80;99.90;;;;;;4908142;29;20048;-82
2021/12/26 14:02:12;;;;;;;10.63;1.80;;;13.80;99.90;;;;;;4915234;28;20047;-83
2021/12/26 14:05:09;;;;;;;12.32;2.10;;;13.80;99.90;;;;;;4856484;28;741979;-83
2021/12/26 14:08:01;;;;;;;14.25;1.98;;;13.80;99.90;;;;;;4881254;29;20122;-83
2021/12/26 14:10:28;;;;;;;18.45;4.20;;;13.80;99.90;;;;;;4882417;29;20044;-83
2021/12/26 14:13:00;;;;;;;14.52;3.45;;;13.80;99.90;;;;;;4887147;29;20056;-84
2021/12/26 14:15:38;;;;;;;9.75;1.80;;;13.80;99.90;;;;;;4893239;29;20049;-84
2021/12/26 14:18:17;;;;;;;13.02;1.70;;;13.80;99.90;;;;;;4890445;29;20576;-84
2021/12/26 14:20:56;;;;;;;12.05;1.30;;;13.80;99.90;;;;;;4894449;29;20064;-83
2021/12/26 14:23:40;;;;;;;11.40;1.65;;;13.70;99.90;;;;;;4889403;29;20056;-83
2021/12/26 14:26:28;;;;;;;9.40;1.40;;;13.70;99.90;;;;;;4891241;29;20052;-83
2021/12/26 14:29:03;;;;;;;13.35;1.80;;;13.70;99.90;;;;;;4889850;29;20136;-83
2021/12/26 14:31:52;;;;;;;9.80;1.70;;;13.70;99.90;;;;;;4889330;29;20052;-83
2021/12/26 14:34:32;;;;;;;13.23;2.17;;;13.70;99.90;;;;;;4887252;29;20052;-85
2021/12/26 14:37:02;;;;;;;15.73;2.00;;;13.70;99.90;;;;;;4898951;29;20469;-84
2021/12/26 14:39:32;;;;;;;9.65;1.83;;;13.70;99.90;;;;;;4890474;29;20072;-85
2021/12/26 14:42:09;;;;;;;9.80;2.00;;;13.70;99.90;;;;;;4892876;29;20601;-84
2021/12/26 14:44:44;;;;;;;9.52;1.42;;;13.80;99.90;;;;;;4890236;29;20052;-84
2021/12/26 14:47:14;;;;;;;8.18;1.60;;;13.70;99.90;;;;;;4892948;29;20040;-85
2021/12/26 14:49:47;;;;;;;10.63;1.90;;;13.70;99.90;;;;;;4887837;29;20079;-84
2021/12/26 14:52:18;;;;;;;9.60;1.60;;;13.60;99.90;;;;;;4889736;29;20053;-83
2021/12/26 14:54:50;;;;;;;11.80;1.85;;;13.50;99.90;;;;;;4889643;29;20548;-82
2021/12/26 14:57:34;;;;;;;8.95;1.85;;;13.40;99.90;;;;;;4887677;29;20044;-83
2021/12/26 15:00:06;;;;;;;9.82;1.83;;;13.40;99.90;;;;;;4887886;29;20085;-83
2021/12/26 15:02:39;;;;;;;8.75;1.48;;;13.40;99.90;;;;;;4905811;29;20465;-84
2021/12/26 15:05:10;;;;;;;10.52;1.45;;;13.30;99.90;;;;;;4907850;29;20048;-83
2021/12/26 15:07:48;;;;;;;10.25;1.70;;;13.30;99.90;;;;;;4906453;29;20048;-84
2021/12/26 15:10:17;;;;;;;10.25;1.55;;;13.20;99.90;;;;;;4897731;29;20108;-84
2021/12/26 15:12:47;;;;;;;8.60;1.58;;;13.20;99.90;;;;;;4903541;29;20672;-84
2021/12/26 15:15:22;;;;;;;11.95;1.90;;;13.20;99.90;;;;;;4887321;29;20049;-85
2021/12/26 15:18:12;;;;;;;8.95;1.27;;;13.20;99.90;;;;;;4898718;29;20680;-86
2021/12/26 15:20:39;;;;;;;9.20;1.30;;;13.20;99.90;;;;;;4890655;29;20436;-85
2021/12/26 15:23:17;;;;;;;6.35;1.30;;;13.10;99.90;;;;;;4902367;29;20527;-85
2021/12/26 15:25:53;;;;;;;9.40;1.52;;;13.10;99.90;;;;;;4912913;29;20048;-85
2021/12/26 15:28:37;;;;;;;8.43;1.52;;;13.10;99.90;;;;;;4907393;29;20063;-85
2021/12/26 15:31:16;;;;;;;13.07;1.45;;;13.10;99.90;;;;;;4924172;29;20056;-84
2021/12/26 15:33:58;;;;;;;11.57;2.42;;;13.10;99.90;;;;;;4918245;29;20067;-85
2021/12/26 15:36:28;;;;;;;11.48;1.83;;;13.20;99.90;;;;;;4916847;29;20044;-84
2021/12/26 15:39:00;;;;;;;18.77;2.92;;;13.20;99.90;;;;;;4916727;29;20508;-85
2021/12/26 15:41:30;;;;;;;20.13;3.05;;;13.10;99.90;;;;;;4899964;29;20094;-84
2021/12/26 15:43:59;;;;;;;13.70;3.10;;;13.10;99.90;;;;;;4891429;29;20056;-84
2021/12/26 15:46:32;;;;;;;18.60;3.00;;;13.10;99.90;;;;;;4893190;29;21006;-85
2021/12/26 15:48:59;;;;;;;17.02;2.63;;;13.10;99.90;;;;;;4906061;29;20044;-86
2021/12/26 15:51:27;;;;;;;17.63;3.45;;;13.10;99.90;;;;;;4896491;29;20048;-86
2021/12/26 15:53:56;;;;;;;17.73;3.35;;;13.00;99.90;;;;;;4893079;29;20060;-85
2021/12/26 15:56:24;;;;;;;16.15;2.83;;;12.90;99.90;;;;;;4901627;29;20573;-86
2021/12/26 15:58:51;;;;;;;19.17;3.05;;;12.80;99.90;;;;;;4891082;29;20126;-85
2021/12/26 16:01:20;;;;;;;21.15;3.55;;;12.80;99.90;;;;;;4907840;29;20112;-85
2021/12/26 16:03:48;;;;;;;20.17;3.75;;;12.80;99.90;;;;;;4913970;29;20075;-85
2021/12/26 16:06:15;;;;;;;29.05;3.50;;;12.70;99.90;;;;;;4916341;29;20052;-89
2021/12/26 16:08:42;;;;;;;22.75;3.15;;;12.70;99.90;;;;;;4911304;29;20308;-87
2021/12/26 16:11:09;;;;;;;22.35;4.35;;;12.70;99.90;;;;;;4893295;29;20056;-87
2021/12/26 16:13:37;;;;;;;27.70;3.47;;;12.60;99.90;;;;;;4892485;29;20052;-87
2021/12/26 16:16:06;;;;;;;57.22;6.32;;;12.60;99.90;;;;;;4907836;29;20040;-89
2021/12/26 16:18:34;;;;;;;35.35;5.07;;;12.60;99.90;;;;;;4907610;29;20044;-89
2021/12/26 16:21:03;;;;;;;28.23;4.35;;;12.50;99.90;;;;;;4891924;29;20513;-89
2021/12/26 16:23:32;;;;;;;26.65;3.90;;;12.40;99.90;;;;;;4902125;29;20141;-89
2021/12/26 16:26:00;;;;;;;26.27;4.30;;;12.40;99.90;;;;;;4907207;29;20052;-89
2021/12/26 16:28:27;;;;;;;25.20;3.53;;;12.30;99.90;;;;;;4911596;29;20060;-87
2021/12/26 16:30:54;;;;;;;15.80;4.30;;;12.30;99.90;;;;;;4897232;29;20108;-87
2021/12/26 16:33:22;;;;;;;22.40;4.20;;;12.30;99.90;;;;;;4907008;29;20048;-86
2021/12/26 16:35:49;;;;;;;28.92;4.57;;;12.20;99.90;;;;;;4898623;29;20056;-86
2021/12/26 16:38:16;;;;;;;26.90;5.50;;;12.20;99.90;;;;;;4892506;29;20044;-88
2021/12/26 16:40:45;;;;;;;28.35;8.35;;;12.10;99.90;;;;;;4908290;29;20051;-88
2021/12/26 16:43:14;;;;;;;34.58;11.77;;;12.00;99.90;;;;;;4904416;29;20625;-87
2021/12/26 16:45:43;;;;;;;37.25;13.07;;;12.00;99.90;;;;;;4893353;29;20108;-86
2021/12/26 16:48:11;;;;;;;30.63;10.20;;;11.90;99.90;;;;;;4885508;29;20056;-87
2021/12/26 16:50:38;;;;;;;32.67;10.80;;;11.90;99.90;;;;;;4885849;29;20111;-88
2021/12/26 16:53:06;;;;;;;32.70;9.10;;;11.80;99.90;;;;;;4886812;29;20060;-86
2021/12/26 16:55:35;;;;;;;40.17;7.68;;;11.80;99.90;;;;;;4903528;29;20556;-86
2021/12/26 16:58:07;;;;;;;52.58;7.50;;;11.70;99.90;;;;;;4904024;29;20720;-85
2021/12/26 17:00:36;;;;;;;42.10;8.88;;;11.70;99.90;;;;;;4906249;29;20056;-86
2021/12/26 17:03:05;;;;;;;42.20;10.57;;;11.70;99.90;;;;;;4894941;29;20126;-88
2021/12/26 17:05:33;;;;;;;;;;;11.70;99.90;;;;;;4908972;29;20168;-86
2021/12/26 17:08:00;;;;;;;83.07;9.00;;;11.70;99.90;;;;;;4894788;29;19927;-85
2021/12/26 17:10:28;;;;;;;148.90;14.48;;;11.60;99.90;;;;;;4890100;29;20846;-84
2021/12/26 17:12:56;;;;;;;104.75;12.45;;;11.60;99.90;;;;;;4906233;29;20048;-86
2021/12/26 17:15:23;;;;;;;92.93;8.87;;;11.60;99.90;;;;;;4889955;29;20402;-86
2021/12/26 17:17:50;;;;;;;114.80;8.98;;;11.60;99.90;;;;;;4886723;29;20068;-85
2021/12/26 17:20:17;;;;;;;59.42;7.00;;;11.60;99.90;;;;;;4902019;29;20142;-85
2021/12/26 17:23:08;;;;;;;54.35;7.95;;;11.60;99.90;;;;;;4900444;29;20052;-86
2021/12/26 17:25:38;;;;;;;86.97;11.80;;;11.60;99.90;;;;;;4888116;29;20080;-88
2021/12/26 17:28:05;;;;;;;52.67;12.18;;;11.50;99.90;;;;;;4903835;29;20055;-84
2021/12/26 17:30:33;;;;;;;52.53;10.90;;;11.50;99.90;;;;;;4894913;29;20056;-86
2021/12/26 17:33:00;;;;;;;108.00;11.95;;;11.60;99.90;;;;;;4886230;29;20051;-87
2021/12/26 17:35:30;;;;;;;171.80;12.50;;;11.50;99.90;;;;;;4888026;29;20051;-85
2021/12/26 17:38:00;;;;;;;138.48;14.25;;;11.50;99.90;;;;;;4907494;29;20056;-86
2021/12/26 17:40:27;;;;;;;271.58;15.20;;;11.50;99.90;;;;;;4901466;29;20055;-85
2021/12/26 17:42:54;;;;;;;362.80;13.48;;;11.50;99.90;;;;;;4907969;29;20457;-84
2021/12/26 17:45:23;;;;;;;265.98;10.75;;;11.50;99.90;;;;;;4902730;29;20048;-85
2021/12/26 17:47:50;;;;;;;200.70;10.45;;;11.50;99.90;;;;;;4885413;29;20060;-85
2021/12/26 17:50:18;;;;;;;166.35;8.90;;;11.40;99.90;;;;;;4900596;29;20051;-86
2021/12/26 17:52:46;;;;;;;185.07;10.40;;;11.40;99.90;;;;;;4893760;29;20047;-84
2021/12/26 17:55:16;;;;;;;207.20;11.27;;;11.40;99.90;;;;;;4900046;29;20464;-86
2021/12/26 17:58:07;;;;;;;209.15;15.15;;;11.40;99.90;;;;;;4893308;29;20062;-86
2021/12/26 18:00:35;;;;;;;181.63;29.55;;;11.30;99.90;;;;;;4908320;29;20386;-86
2021/12/26 18:03:02;;;;;;;170.45;25.75;;;11.30;99.90;;;;;;4892531;29;20139;-86
2021/12/26 18:05:30;;;;;;;208.15;31.85;;;11.30;99.90;;;;;;4896981;29;20064;-83
2021/12/26 18:07:57;;;;;;;217.90;36.40;;;11.30;99.90;;;;;;4905732;29;20111;-85
2021/12/26 18:10:24;;;;;;;239.57;35.92;;;11.30;99.90;;;;;;4907349;29;20056;-85
2021/12/26 18:12:51;;;;;;;221.65;38.25;;;11.30;99.90;;;;;;4914961;29;20075;-89
2021/12/26 18:15:20;;;;;;;207.00;31.92;;;11.30;99.90;;;;;;4906670;29;20127;-87
2021/12/26 18:17:50;;;;;;;261.10;30.45;;;11.20;99.90;;;;;;4909470;29;20063;-86
2021/12/26 18:20:22;;;;;;;355.88;32.90;;;11.20;99.90;;;;;;4895763;29;20088;-84
2021/12/26 18:22:50;;;;;;;326.13;30.75;;;11.20;99.90;;;;;;4912823;29;20052;-86
2021/12/26 18:25:17;;;;;;;303.40;24.50;;;11.20;99.90;;;;;;4892492;29;20052;-86
2021/12/26 18:27:44;;;;;;;311.80;24.08;;;11.20;99.90;;;;;;4915199;29;20152;-87
2021/12/26 18:30:18;;;;;;;320.45;31.70;;;11.20;99.90;;;;;;4914307;29;20056;-85
2021/12/26 18:32:48;;;;;;;287.67;33.80;;;11.20;99.90;;;;;;4896562;29;20059;-85
2021/12/26 18:35:16;;;;;;;306.83;32.22;;;11.20;99.90;;;;;;4912396;29;20048;-84
2021/12/26 18:37:45;;;;;;;201.43;28.00;;;11.10;99.90;;;;;;4894455;29;20119;-85
2021/12/26 18:40:21;;;;;;;233.45;37.80;;;11.20;99.90;;;;;;4897568;29;20060;-85
2021/12/26 18:42:54;;;;;;;194.95;35.70;;;11.10;99.90;;;;;;4918045;29;20048;-85
2021/12/26 18:45:22;;;;;;;177.93;34.80;;;11.10;99.90;;;;;;4914031;29;20056;-83
2021/12/26 18:47:49;;;;;;;199.88;33.58;;;11.10;99.90;;;;;;4909737;29;20056;-84
2021/12/26 18:50:18;;;;;;;116.40;29.50;;;11.10;99.90;;;;;;4895968;29;20044;-83
2021/12/26 18:52:45;;;;;;;149.02;40.08;;;11.10;99.90;;;;;;4895451;29;20078;-84
2021/12/26 18:55:17;;;;;;;85.63;30.25;;;11.10;99.90;;;;;;4914460;29;20613;-84
2021/12/26 18:57:44;;;;;;;100.97;31.33;;;11.10;99.90;;;;;;4914433;29;20067;-86
2021/12/26 19:00:17;;;;;;;126.65;37.13;;;11.10;99.90;;;;;;4910652;29;20124;-86
2021/12/26 19:02:47;;;;;;;98.10;37.40;;;11.10;99.90;;;;;;4900164;29;20056;-85
2021/12/26 19:05:16;;;;;;;71.32;28.23;;;11.10;99.90;;;;;;4912668;29;20051;-83
2021/12/26 19:07:43;;;;;;;;;;;11.10;99.90;;;;;;4910859;29;20619;-87
2021/12/26 19:10:10;;;;;;;75.80;28.85;;;11.10;99.90;;;;;;4897999;29;19923;-87
2021/12/26 19:12:37;;;;;;;81.70;31.98;;;11.10;99.90;;;;;;4897224;29;20593;-85
2021/12/26 19:15:05;;;;;;;75.82;27.35;;;11.10;99.90;;;;;;4901531;29;20058;-85
2021/12/26 19:17:32;;;;;;;76.22;24.88;;;11.00;99.90;;;;;;4894631;29;20052;-85
2021/12/26 19:19:59;;;;;;;80.95;25.45;;;11.00;99.90;;;;;;4905194;29;20067;-86
2021/12/26 19:22:26;;;;;;;71.47;27.27;;;11.00;99.90;;;;;;4912459;29;20048;-86
2021/12/26 19:24:53;;;;;;;77.68;26.52;;;11.10;99.90;;;;;;4914728;29;20055;-85
2021/12/26 19:27:20;;;;;;;42.83;19.63;;;11.00;99.90;;;;;;4913255;29;20056;-87
2021/12/26 19:29:47;;;;;;;52.30;21.88;;;11.10;99.90;;;;;;4918423;29;20056;-86
2021/12/26 19:32:16;;;;;;;53.90;20.98;;;11.10;99.90;;;;;;4910979;29;20049;-85
2021/12/26 19:34:46;;;;;;;60.50;24.52;;;11.00;99.90;;;;;;4912014;29;20060;-86
2021/12/26 19:37:14;;;;;;;57.08;24.77;;;11.10;99.90;;;;;;4903002;29;20898;-86
2021/12/26 19:39:42;;;;;;;70.15;24.92;;;11.00;99.90;;;;;;4916772;29;20404;-87
2021/12/26 19:42:11;;;;;;;66.90;24.23;;;11.00;99.90;;;;;;4900701;29;20063;-87
2021/12/26 19:44:39;;;;;;;68.07;23.48;;;11.00;99.90;;;;;;4917972;29;20482;-86
2021/12/26 19:47:08;;;;;;;84.60;26.55;;;11.10;99.90;;;;;;4896260;29;20060;-88
2021/12/26 19:49:35;;;;;;;75.18;24.92;;;11.00;99.90;;;;;;4906765;29;20473;-87
2021/12/26 19:52:03;;;;;;;72.00;25.08;;;11.00;99.90;;;;;;4896482;29;20067;-87
2021/12/26 19:54:30;;;;;;;85.20;26.35;;;11.10;99.90;;;;;;4895597;29;20056;-87
2021/12/26 19:56:58;;;;;;;131.38;27.35;;;11.10;99.90;;;;;;4919748;29;20583;-87
2021/12/26 19:59:25;;;;;;;244.13;28.98;;;11.10;99.90;;;;;;4900955;29;20071;-86
2021/12/26 20:01:52;;;;;;;250.00;29.60;;;11.10;99.90;;;;;;4912492;29;20047;-87